KLRY

Lawrence Smith Memorial Airport

Harrisonville, Missouri, USA
METAR KLRY 170035Z AUTO 00000KT 10SM CLR 05/M02 A3030 RMK AO2
Observed Flight Rules
Dec-17 @ 00:35 UTC (22 minutes ago) Visual Flight Rules
Visibility Clouds
10 miles
  • Clear skies
Temperatures Readings
Current 5°C / 41°F
Dewpoint -2°C / 28°F
Humidity 61%
Altimeter 30.3" Hg
Pressure 1026 hPa
Elevation 279
METAR KLRY 170035Z AUTO 00000KT 10SM CLR 05/M02 A3030 RMK AO2
Observed Flight Rules
Dec-17 @ 00:35 UTC
(22 minutes ago)
VFR
Clouds
  • Clear skies
Temperature Dewpoint
5°C / 41°F -2°C / 28°F
Humidity Altimeter Pressure
61% 30.3" Hg 1026 hPa